sensor_id;sensor_type;location;lat;lon;timestamp;temperature;humidity
14614;DHT22;7393;51.446;6.800;2023-09-12T00:00:22;23.00;94.40
14614;DHT22;7393;51.446;6.800;2023-09-12T00:02:49;23.00;99.90
14614;DHT22;7393;51.446;6.800;2023-09-12T00:05:16;22.90;1.00
14614;DHT22;7393;51.446;6.800;2023-09-12T00:07:43;23.00;1.00
14614;DHT22;7393;51.446;6.800;2023-09-12T00:10:10;22.90;1.00
14614;DHT22;7393;51.446;6.800;2023-09-12T00:12:37;22.90;1.00
14614;DHT22;7393;51.446;6.800;2023-09-12T00:15:06;22.90;1.00
14614;DHT22;7393;51.446;6.800;2023-09-12T00:17:33;22.80;99.90
14614;DHT22;7393;51.446;6.800;2023-09-12T00:19:59;22.80;99.90
14614;DHT22;7393;51.446;6.800;2023-09-12T00:22:26;22.80;99.90
14614;DHT22;7393;51.446;6.800;2023-09-12T00:24:53;22.80;1.00
14614;DHT22;7393;51.446;6.800;2023-09-12T00:27:20;22.70;1.00
14614;DHT22;7393;51.446;6.800;2023-09-12T00:29:46;22.70;1.00
14614;DHT22;7393;51.446;6.800;2023-09-12T00:32:15;22.80;99.90
14614;DHT22;7393;51.446;6.800;2023-09-12T00:34:41;22.80;98.90
14614;DHT22;7393;51.446;6.800;2023-09-12T00:37:08;22.90;99.90
14614;DHT22;7393;51.446;6.800;2023-09-12T00:39:35;22.90;99.90
14614;DHT22;7393;51.446;6.800;2023-09-12T00:42:03;22.70;1.00
14614;DHT22;7393;51.446;6.800;2023-09-12T00:44:30;22.60;1.00
14614;DHT22;7393;51.446;6.800;2023-09-12T00:46:57;22.50;1.00
14614;DHT22;7393;51.446;6.800;2023-09-12T00:49:27;22.40;1.00
14614;DHT22;7393;51.446;6.800;2023-09-12T00:51:54;22.30;1.00
14614;DHT22;7393;51.446;6.800;2023-09-12T00:54:23;22.20;1.00
14614;DHT22;7393;51.446;6.800;2023-09-12T00:56:49;22.10;1.00
14614;DHT22;7393;51.446;6.800;2023-09-12T00:59:18;22.10;1.00
14614;DHT22;7393;51.446;6.800;2023-09-12T01:01:45;22.00;1.00
14614;DHT22;7393;51.446;6.800;2023-09-12T01:04:12;22.00;1.00
14614;DHT22;7393;51.446;6.800;2023-09-12T01:06:40;22.00;1.00
14614;DHT22;7393;51.446;6.800;2023-09-12T01:09:07;22.00;1.00
14614;DHT22;7393;51.446;6.800;2023-09-12T01:11:34;22.00;1.00
14614;DHT22;7393;51.446;6.800;2023-09-12T01:14:01;22.00;1.00
14614;DHT22;7393;51.446;6.800;2023-09-12T01:16:28;22.00;1.00
14614;DHT22;7393;51.446;6.800;2023-09-12T01:18:55;22.00;1.00
14614;DHT22;7393;51.446;6.800;2023-09-12T01:21:41;22.00;1.00
14614;DHT22;7393;51.446;6.800;2023-09-12T01:24:40;22.00;1.00
14614;DHT22;7393;51.446;6.800;2023-09-12T01:27:21;21.90;1.00
14614;DHT22;7393;51.446;6.800;2023-09-12T01:29:51;21.90;1.00
14614;DHT22;7393;51.446;6.800;2023-09-12T01:32:20;21.90;1.00
14614;DHT22;7393;51.446;6.800;2023-09-12T01:34:47;21.90;1.00
14614;DHT22;7393;51.446;6.800;2023-09-12T01:37:14;21.90;1.00
14614;DHT22;7393;51.446;6.800;2023-09-12T01:39:41;21.90;1.00
14614;DHT22;7393;51.446;6.800;2023-09-12T01:42:13;21.80;1.00
14614;DHT22;7393;51.446;6.800;2023-09-12T01:44:43;21.80;1.00
14614;DHT22;7393;51.446;6.800;2023-09-12T01:47:11;21.80;1.00
14614;DHT22;7393;51.446;6.800;2023-09-12T01:49:41;21.90;1.00
14614;DHT22;7393;51.446;6.800;2023-09-12T01:52:09;21.90;1.00
14614;DHT22;7393;51.446;6.800;2023-09-12T01:54:37;21.90;1.00
14614;DHT22;7393;51.446;6.800;2023-09-12T01:57:05;21.90;1.00
14614;DHT22;7393;51.446;6.800;2023-09-12T01:59:33;21.90;1.00
14614;DHT22;7393;51.446;6.800;2023-09-12T02:02:02;21.80;1.00
14614;DHT22;7393;51.446;6.800;2023-09-12T02:04:29;21.80;1.00
14614;DHT22;7393;51.446;6.800;2023-09-12T02:06:56;21.70;1.00
14614;DHT22;7393;51.446;6.800;2023-09-12T02:09:23;21.70;1.00
14614;DHT22;7393;51.446;6.800;2023-09-12T02:11:51;21.80;1.00
14614;DHT22;7393;51.446;6.800;2023-09-12T02:14:17;21.80;1.00
14614;DHT22;7393;51.446;6.800;2023-09-12T02:16:44;21.80;1.00
14614;DHT22;7393;51.446;6.800;2023-09-12T02:19:12;21.70;1.00
14614;DHT22;7393;51.446;6.800;2023-09-12T02:21:39;21.70;1.00
14614;DHT22;7393;51.446;6.800;2023-09-12T02:24:07;21.70;1.00
14614;DHT22;7393;51.446;6.800;2023-09-12T02:26:34;21.70;1.00
14614;DHT22;7393;51.446;6.800;2023-09-12T02:29:02;21.70;1.00
14614;DHT22;7393;51.446;6.800;2023-09-12T02:31:31;21.70;1.00
14614;DHT22;7393;51.446;6.800;2023-09-12T02:33:58;21.70;1.00
14614;DHT22;7393;51.446;6.800;2023-09-12T02:36:26;21.70;1.00
14614;DHT22;7393;51.446;6.800;2023-09-12T02:38:53;21.70;1.00
14614;DHT22;7393;51.446;6.800;2023-09-12T02:41:20;21.60;1.00
14614;DHT22;7393;51.446;6.800;2023-09-12T02:43:47;21.60;1.00
14614;DHT22;7393;51.446;6.800;2023-09-12T02:46:13;21.60;1.00
14614;DHT22;7393;51.446;6.800;2023-09-12T02:48:40;21.60;1.00
14614;DHT22;7393;51.446;6.800;2023-09-12T02:51:07;21.60;1.00
14614;DHT22;7393;51.446;6.800;2023-09-12T02:53:35;21.50;1.00
14614;DHT22;7393;51.446;6.800;2023-09-12T02:56:02;21.50;1.00
14614;DHT22;7393;51.446;6.800;2023-09-12T02:58:29;21.50;1.00
14614;DHT22;7393;51.446;6.800;2023-09-12T03:00:55;21.50;1.00
14614;DHT22;7393;51.446;6.800;2023-09-12T03:03:22;21.50;1.00
14614;DHT22;7393;51.446;6.800;2023-09-12T03:05:57;21.50;1.00
14614;DHT22;7393;51.446;6.800;2023-09-12T03:08:24;21.50;1.00
14614;DHT22;7393;51.446;6.800;2023-09-12T03:10:54;21.40;1.00
14614;DHT22;7393;51.446;6.800;2023-09-12T03:13:23;21.40;1.00
14614;DHT22;7393;51.446;6.800;2023-09-12T03:15:50;21.40;1.00
14614;DHT22;7393;51.446;6.800;2023-09-12T03:18:16;21.40;1.00
14614;DHT22;7393;51.446;6.800;2023-09-12T03:20:43;21.40;1.00
14614;DHT22;7393;51.446;6.800;2023-09-12T03:23:10;21.40;1.00
14614;DHT22;7393;51.446;6.800;2023-09-12T03:25:37;21.40;1.00
14614;DHT22;7393;51.446;6.800;2023-09-12T03:28:06;21.40;1.00
14614;DHT22;7393;51.446;6.800;2023-09-12T03:30:34;21.50;1.00
14614;DHT22;7393;51.446;6.800;2023-09-12T03:33:01;21.40;1.00
14614;DHT22;7393;51.446;6.800;2023-09-12T03:35:28;21.40;1.00
14614;DHT22;7393;51.446;6.800;2023-09-12T03:37:55;21.40;1.00
14614;DHT22;7393;51.446;6.800;2023-09-12T03:40:22;21.40;1.00
14614;DHT22;7393;51.446;6.800;2023-09-12T03:42:49;21.40;1.00
14614;DHT22;7393;51.446;6.800;2023-09-12T03:45:17;21.40;1.00
14614;DHT22;7393;51.446;6.800;2023-09-12T03:47:44;21.40;1.00
14614;DHT22;7393;51.446;6.800;2023-09-12T03:50:12;21.40;1.00
14614;DHT22;7393;51.446;6.800;2023-09-12T03:52:39;21.40;1.00
14614;DHT22;7393;51.446;6.800;2023-09-12T03:55:07;21.30;1.00
14614;DHT22;7393;51.446;6.800;2023-09-12T03:57:33;21.30;1.00
14614;DHT22;7393;51.446;6.800;2023-09-12T04:00:00;21.30;1.00
14614;DHT22;7393;51.446;6.800;2023-09-12T04:02:31;21.30;1.00
14614;DHT22;7393;51.446;6.800;2023-09-12T04:04:57;21.30;1.00
14614;DHT22;7393;51.446;6.800;2023-09-12T04:07:25;21.30;1.00
14614;DHT22;7393;51.446;6.800;2023-09-12T04:09:51;21.30;1.00
14614;DHT22;7393;51.446;6.800;2023-09-12T04:12:18;21.30;1.00
14614;DHT22;7393;51.446;6.800;2023-09-12T04:14:45;21.20;1.00
14614;DHT22;7393;51.446;6.800;2023-09-12T04:17:12;21.20;1.00
14614;DHT22;7393;51.446;6.800;2023-09-12T04:19:40;21.20;1.00
14614;DHT22;7393;51.446;6.800;2023-09-12T04:22:07;21.20;1.00
14614;DHT22;7393;51.446;6.800;2023-09-12T04:24:33;21.20;1.00
14614;DHT22;7393;51.446;6.800;2023-09-12T04:27:00;21.20;1.00
14614;DHT22;7393;51.446;6.800;2023-09-12T04:29:27;21.20;1.00
14614;DHT22;7393;51.446;6.800;2023-09-12T04:31:54;21.20;1.00
14614;DHT22;7393;51.446;6.800;2023-09-12T04:34:24;21.20;1.00
14614;DHT22;7393;51.446;6.800;2023-09-12T04:36:53;21.20;1.00
14614;DHT22;7393;51.446;6.800;2023-09-12T04:39:20;21.20;1.00
14614;DHT22;7393;51.446;6.800;2023-09-12T04:41:47;21.10;1.00
14614;DHT22;7393;51.446;6.800;2023-09-12T04:44:14;21.10;1.00
14614;DHT22;7393;51.446;6.800;2023-09-12T04:46:41;21.10;1.00
14614;DHT22;7393;51.446;6.800;2023-09-12T04:49:07;21.10;1.00
14614;DHT22;7393;51.446;6.800;2023-09-12T04:51:34;21.00;1.00
14614;DHT22;7393;51.446;6.800;2023-09-12T04:54:03;21.10;1.00
14614;DHT22;7393;51.446;6.800;2023-09-12T04:56:30;21.10;1.00
14614;DHT22;7393;51.446;6.800;2023-09-12T04:58:57;21.10;1.00
14614;DHT22;7393;51.446;6.800;2023-09-12T05:01:23;21.10;1.00
14614;DHT22;7393;51.446;6.800;2023-09-12T05:03:51;21.10;1.00
14614;DHT22;7393;51.446;6.800;2023-09-12T05:06:18;21.20;1.00
14614;DHT22;7393;51.446;6.800;2023-09-12T05:08:45;21.20;1.00
14614;DHT22;7393;51.446;6.800;2023-09-12T05:11:13;21.20;1.00
14614;DHT22;7393;51.446;6.800;2023-09-12T05:13:41;21.10;1.00
14614;DHT22;7393;51.446;6.800;2023-09-12T05:16:07;21.20;1.00
14614;DHT22;7393;51.446;6.800;2023-09-12T05:18:34;21.20;1.00
14614;DHT22;7393;51.446;6.800;2023-09-12T05:21:01;21.20;1.00
14614;DHT22;7393;51.446;6.800;2023-09-12T05:23:28;21.10;1.00
14614;DHT22;7393;51.446;6.800;2023-09-12T05:25:55;21.20;1.00
14614;DHT22;7393;51.446;6.800;2023-09-12T05:28:23;21.20;1.00
14614;DHT22;7393;51.446;6.800;2023-09-12T05:30:50;21.20;1.00
14614;DHT22;7393;51.446;6.800;2023-09-12T05:33:17;21.30;1.00
14614;DHT22;7393;51.446;6.800;2023-09-12T05:35:43;21.30;1.00
14614;DHT22;7393;51.446;6.800;2023-09-12T05:38:10;21.30;1.00
14614;DHT22;7393;51.446;6.800;2023-09-12T05:40:37;21.30;1.00
14614;DHT22;7393;51.446;6.800;2023-09-12T05:43:04;21.20;1.00
14614;DHT22;7393;51.446;6.800;2023-09-12T05:45:32;21.20;1.00
14614;DHT22;7393;51.446;6.800;2023-09-12T05:47:59;21.20;1.00
14614;DHT22;7393;51.446;6.800;2023-09-12T05:50:26;21.20;1.00
14614;DHT22;7393;51.446;6.800;2023-09-12T05:52:53;21.30;1.00
14614;DHT22;7393;51.446;6.800;2023-09-12T05:55:20;21.30;1.00
14614;DHT22;7393;51.446;6.800;2023-09-12T05:57:48;21.30;1.00
14614;DHT22;7393;51.446;6.800;2023-09-12T06:00:18;21.30;1.00
14614;DHT22;7393;51.446;6.800;2023-09-12T06:02:46;21.30;1.00
14614;DHT22;7393;51.446;6.800;2023-09-12T06:05:13;21.40;1.00
14614;DHT22;7393;51.446;6.800;2023-09-12T06:07:40;21.40;1.00
14614;DHT22;7393;51.446;6.800;2023-09-12T06:10:07;21.40;1.00
14614;DHT22;7393;51.446;6.800;2023-09-12T06:12:34;21.40;1.00
14614;DHT22;7393;51.446;6.800;2023-09-12T06:15:02;21.50;1.00
14614;DHT22;7393;51.446;6.800;2023-09-12T06:17:29;21.50;1.00
14614;DHT22;7393;51.446;6.800;2023-09-12T06:19:57;21.40;1.00
14614;DHT22;7393;51.446;6.800;2023-09-12T06:22:24;21.40;1.00
14614;DHT22;7393;51.446;6.800;2023-09-12T06:24:51;21.30;1.00
14614;DHT22;7393;51.446;6.800;2023-09-12T06:27:18;21.20;1.00
14614;DHT22;7393;51.446;6.800;2023-09-12T06:29:45;21.00;1.00
14614;DHT22;7393;51.446;6.800;2023-09-12T06:32:13;20.80;1.00
14614;DHT22;7393;51.446;6.800;2023-09-12T06:34:40;20.70;1.00
14614;DHT22;7393;51.446;6.800;2023-09-12T06:37:08;20.60;1.00
14614;DHT22;7393;51.446;6.800;2023-09-12T06:39:35;20.50;1.00
14614;DHT22;7393;51.446;6.800;2023-09-12T06:42:02;20.40;1.00
14614;DHT22;7393;51.446;6.800;2023-09-12T06:44:29;20.40;1.00
14614;DHT22;7393;51.446;6.800;2023-09-12T06:46:56;20.40;1.00
14614;DHT22;7393;51.446;6.800;2023-09-12T06:49:23;20.30;1.00
14614;DHT22;7393;51.446;6.800;2023-09-12T06:51:50;20.20;1.00
14614;DHT22;7393;51.446;6.800;2023-09-12T06:54:18;20.30;1.00
14614;DHT22;7393;51.446;6.800;2023-09-12T06:56:45;20.30;1.00
14614;DHT22;7393;51.446;6.800;2023-09-12T06:59:11;20.20;1.00
14614;DHT22;7393;51.446;6.800;2023-09-12T07:01:38;20.20;1.00
14614;DHT22;7393;51.446;6.800;2023-09-12T07:04:05;20.20;1.00
14614;DHT22;7393;51.446;6.800;2023-09-12T07:06:32;20.30;1.00
14614;DHT22;7393;51.446;6.800;2023-09-12T07:08:59;20.20;1.00
14614;DHT22;7393;51.446;6.800;2023-09-12T07:11:27;20.20;1.00
14614;DHT22;7393;51.446;6.800;2023-09-12T07:13:54;20.20;1.00
14614;DHT22;7393;51.446;6.800;2023-09-12T07:16:20;20.20;1.00
14614;DHT22;7393;51.446;6.800;2023-09-12T07:18:48;20.20;1.00
14614;DHT22;7393;51.446;6.800;2023-09-12T07:21:15;20.20;1.00
14614;DHT22;7393;51.446;6.800;2023-09-12T07:23:42;20.20;1.00
14614;DHT22;7393;51.446;6.800;2023-09-12T07:26:12;20.20;1.00
14614;DHT22;7393;51.446;6.800;2023-09-12T07:28:41;20.20;1.00
14614;DHT22;7393;51.446;6.800;2023-09-12T07:31:08;20.20;1.00
14614;DHT22;7393;51.446;6.800;2023-09-12T07:33:34;20.20;1.00
14614;DHT22;7393;51.446;6.800;2023-09-12T07:36:02;20.20;1.00
14614;DHT22;7393;51.446;6.800;2023-09-12T07:38:29;20.20;1.00
14614;DHT22;7393;51.446;6.800;2023-09-12T07:40:56;20.20;1.00
14614;DHT22;7393;51.446;6.800;2023-09-12T07:43:23;20.20;1.00
14614;DHT22;7393;51.446;6.800;2023-09-12T07:45:56;20.30;1.00
14614;DHT22;7393;51.446;6.800;2023-09-12T07:48:22;20.30;1.00
14614;DHT22;7393;51.446;6.800;2023-09-12T07:50:49;20.30;1.00
14614;DHT22;7393;51.446;6.800;2023-09-12T07:53:17;20.30;1.00
14614;DHT22;7393;51.446;6.800;2023-09-12T07:55:44;20.30;1.00
14614;DHT22;7393;51.446;6.800;2023-09-12T07:58:12;20.30;1.00
14614;DHT22;7393;51.446;6.800;2023-09-12T08:00:39;20.30;1.00
14614;DHT22;7393;51.446;6.800;2023-09-12T08:03:08;20.40;1.00
14614;DHT22;7393;51.446;6.800;2023-09-12T08:05:35;20.40;1.00
14614;DHT22;7393;51.446;6.800;2023-09-12T08:08:02;20.40;1.00
14614;DHT22;7393;51.446;6.800;2023-09-12T08:10:28;20.50;1.00
14614;DHT22;7393;51.446;6.800;2023-09-12T08:12:55;20.50;1.00
14614;DHT22;7393;51.446;6.800;2023-09-12T08:15:22;20.60;1.00
14614;DHT22;7393;51.446;6.800;2023-09-12T08:17:49;20.60;1.00
14614;DHT22;7393;51.446;6.800;2023-09-12T08:20:19;20.70;1.00
14614;DHT22;7393;51.446;6.800;2023-09-12T08:22:46;20.70;1.00
14614;DHT22;7393;51.446;6.800;2023-09-12T08:25:14;20.80;1.00
14614;DHT22;7393;51.446;6.800;2023-09-12T08:27:41;20.90;1.00
14614;DHT22;7393;51.446;6.800;2023-09-12T08:30:10;20.90;1.00
14614;DHT22;7393;51.446;6.800;2023-09-12T08:32:38;21.00;1.00
14614;DHT22;7393;51.446;6.800;2023-09-12T08:35:09;21.20;1.00
14614;DHT22;7393;51.446;6.800;2023-09-12T08:37:38;21.30;1.00
14614;DHT22;7393;51.446;6.800;2023-09-12T08:40:06;21.40;1.00
14614;DHT22;7393;51.446;6.800;2023-09-12T08:42:39;21.50;1.00
14614;DHT22;7393;51.446;6.800;2023-09-12T08:45:12;21.80;1.00
14614;DHT22;7393;51.446;6.800;2023-09-12T08:47:42;22.00;1.00
14614;DHT22;7393;51.446;6.800;2023-09-12T08:50:11;22.10;1.00
14614;DHT22;7393;51.446;6.800;2023-09-12T08:52:41;22.20;1.00
14614;DHT22;7393;51.446;6.800;2023-09-12T08:55:08;22.30;1.00
14614;DHT22;7393;51.446;6.800;2023-09-12T08:57:37;22.40;1.00
14614;DHT22;7393;51.446;6.800;2023-09-12T09:00:05;22.50;1.00
14614;DHT22;7393;51.446;6.800;2023-09-12T09:02:34;22.50;1.00
14614;DHT22;7393;51.446;6.800;2023-09-12T09:05:04;22.60;1.00
14614;DHT22;7393;51.446;6.800;2023-09-12T09:07:33;22.60;1.00
14614;DHT22;7393;51.446;6.800;2023-09-12T09:10:03;22.70;1.00
14614;DHT22;7393;51.446;6.800;2023-09-12T09:12:31;22.80;1.00
14614;DHT22;7393;51.446;6.800;2023-09-12T09:14:58;22.80;1.00
14614;DHT22;7393;51.446;6.800;2023-09-12T09:17:26;22.90;1.00
14614;DHT22;7393;51.446;6.800;2023-09-12T09:19:53;23.00;1.00
14614;DHT22;7393;51.446;6.800;2023-09-12T09:22:20;23.00;1.00
14614;DHT22;7393;51.446;6.800;2023-09-12T09:24:48;23.10;1.00
14614;DHT22;7393;51.446;6.800;2023-09-12T09:27:33;23.20;1.00
14614;DHT22;7393;51.446;6.800;2023-09-12T09:30:00;23.30;1.00
14614;DHT22;7393;51.446;6.800;2023-09-12T09:32:28;23.40;1.00
14614;DHT22;7393;51.446;6.800;2023-09-12T09:34:55;23.50;1.00
14614;DHT22;7393;51.446;6.800;2023-09-12T09:37:23;23.60;99.90
14614;DHT22;7393;51.446;6.800;2023-09-12T09:39:50;23.70;99.90
14614;DHT22;7393;51.446;6.800;2023-09-12T09:42:18;23.80;1.00
14614;DHT22;7393;51.446;6.800;2023-09-12T09:44:47;23.90;99.90
14614;DHT22;7393;51.446;6.800;2023-09-12T09:47:14;24.00;99.90
14614;DHT22;7393;51.446;6.800;2023-09-12T09:49:45;24.00;99.90
14614;DHT22;7393;51.446;6.800;2023-09-12T09:52:12;24.00;1.00
14614;DHT22;7393;51.446;6.800;2023-09-12T09:54:43;24.00;1.00
14614;DHT22;7393;51.446;6.800;2023-09-12T09:57:10;24.00;99.90
14614;DHT22;7393;51.446;6.800;2023-09-12T09:59:37;24.20;1.00
14614;DHT22;7393;51.446;6.800;2023-09-12T10:02:09;24.20;99.90
14614;DHT22;7393;51.446;6.800;2023-09-12T10:04:43;24.30;1.00
14614;DHT22;7393;51.446;6.800;2023-09-12T10:07:11;24.30;99.90
14614;DHT22;7393;51.446;6.800;2023-09-12T10:09:38;24.30;1.00
14614;DHT22;7393;51.446;6.800;2023-09-12T10:12:07;24.40;1.00
14614;DHT22;7393;51.446;6.800;2023-09-12T10:14:34;24.40;1.00
14614;DHT22;7393;51.446;6.800;2023-09-12T10:17:02;24.50;1.00
14614;DHT22;7393;51.446;6.800;2023-09-12T10:19:36;24.50;1.00
14614;DHT22;7393;51.446;6.800;2023-09-12T10:22:09;24.60;1.00
14614;DHT22;7393;51.446;6.800;2023-09-12T10:24:39;24.60;99.90
14614;DHT22;7393;51.446;6.800;2023-09-12T10:27:08;24.60;1.00
14614;DHT22;7393;51.446;6.800;2023-09-12T10:29:35;24.70;99.90
14614;DHT22;7393;51.446;6.800;2023-09-12T10:32:02;24.70;99.90
14614;DHT22;7393;51.446;6.800;2023-09-12T10:34:32;24.80;99.90
14614;DHT22;7393;51.446;6.800;2023-09-12T10:36:59;24.90;1.00
14614;DHT22;7393;51.446;6.800;2023-09-12T10:39:27;25.10;1.00
14614;DHT22;7393;51.446;6.800;2023-09-12T10:41:55;25.20;1.00
14614;DHT22;7393;51.446;6.800;2023-09-12T10:44:24;25.30;99.90
14614;DHT22;7393;51.446;6.800;2023-09-12T10:46:52;25.40;1.00
14614;DHT22;7393;51.446;6.800;2023-09-12T10:49:20;25.50;1.00
14614;DHT22;7393;51.446;6.800;2023-09-12T10:51:48;25.60;1.00
14614;DHT22;7393;51.446;6.800;2023-09-12T10:54:23;25.70;1.00
14614;DHT22;7393;51.446;6.800;2023-09-12T10:57:02;25.80;1.00
14614;DHT22;7393;51.446;6.800;2023-09-12T10:59:29;26.00;1.00
14614;DHT22;7393;51.446;6.800;2023-09-12T11:02:26;26.10;1.00
14614;DHT22;7393;51.446;6.800;2023-09-12T11:04:54;26.20;99.90
14614;DHT22;7393;51.446;6.800;2023-09-12T11:07:32;26.20;99.90
14614;DHT22;7393;51.446;6.800;2023-09-12T11:10:19;26.20;99.90
14614;DHT22;7393;51.446;6.800;2023-09-12T11:12:47;26.30;99.90
14614;DHT22;7393;51.446;6.800;2023-09-12T11:15:15;26.40;99.90
14614;DHT22;7393;51.446;6.800;2023-09-12T11:17:43;26.50;99.90
14614;DHT22;7393;51.446;6.800;2023-09-12T11:20:11;26.50;99.90
14614;DHT22;7393;51.446;6.800;2023-09-12T11:22:41;26.60;99.90
14614;DHT22;7393;51.446;6.800;2023-09-12T11:25:18;26.50;99.90
14614;DHT22;7393;51.446;6.800;2023-09-12T11:28:02;26.40;99.90
14614;DHT22;7393;51.446;6.800;2023-09-12T11:30:30;26.40;99.90
14614;DHT22;7393;51.446;6.800;2023-09-12T11:32:58;26.50;99.90
14614;DHT22;7393;51.446;6.800;2023-09-12T11:35:27;26.50;99.90
14614;DHT22;7393;51.446;6.800;2023-09-12T11:37:56;26.60;99.90
14614;DHT22;7393;51.446;6.800;2023-09-12T11:40:26;26.70;99.90
14614;DHT22;7393;51.446;6.800;2023-09-12T11:43:08;26.70;99.90
14614;DHT22;7393;51.446;6.800;2023-09-12T11:45:44;26.80;99.90
14614;DHT22;7393;51.446;6.800;2023-09-12T11:48:11;26.70;99.90
14614;DHT22;7393;51.446;6.800;2023-09-12T11:50:38;26.70;99.90
14614;DHT22;7393;51.446;6.800;2023-09-12T11:53:09;26.70;99.90
14614;DHT22;7393;51.446;6.800;2023-09-12T11:55:42;26.80;99.90
14614;DHT22;7393;51.446;6.800;2023-09-12T11:58:10;26.80;99.90
14614;DHT22;7393;51.446;6.800;2023-09-12T12:00:37;26.80;99.90
14614;DHT22;7393;51.446;6.800;2023-09-12T12:03:09;27.00;99.90
14614;DHT22;7393;51.446;6.800;2023-09-12T12:05:36;27.20;99.90
14614;DHT22;7393;51.446;6.800;2023-09-12T12:08:03;27.30;81.50
14614;DHT22;7393;51.446;6.800;2023-09-12T12:10:32;27.20;46.70
14614;DHT22;7393;51.446;6.800;2023-09-12T12:12:59;27.30;52.20
14614;DHT22;7393;51.446;6.800;2023-09-12T12:15:27;27.30;66.30
14614;DHT22;7393;51.446;6.800;2023-09-12T12:17:54;27.50;45.80
14614;DHT22;7393;51.446;6.800;2023-09-12T12:20:22;27.60;83.30
14614;DHT22;7393;51.446;6.800;2023-09-12T12:22:49;27.80;63.00
14614;DHT22;7393;51.446;6.800;2023-09-12T12:25:17;28.00;37.60
14614;DHT22;7393;51.446;6.800;2023-09-12T12:27:45;28.00;8.10
14614;DHT22;7393;51.446;6.800;2023-09-12T12:30:13;28.00;4.90
14614;DHT22;7393;51.446;6.800;2023-09-12T12:32:40;28.00;21.60
14614;DHT22;7393;51.446;6.800;2023-09-12T12:35:08;28.10;21.30
14614;DHT22;7393;51.446;6.800;2023-09-12T12:37:36;28.20;11.10
14614;DHT22;7393;51.446;6.800;2023-09-12T12:40:04;28.20;1.00
14614;DHT22;7393;51.446;6.800;2023-09-12T12:42:35;28.10;1.00
14614;DHT22;7393;51.446;6.800;2023-09-12T12:45:11;28.10;1.00
14614;DHT22;7393;51.446;6.800;2023-09-12T12:47:38;28.10;1.00
14614;DHT22;7393;51.446;6.800;2023-09-12T12:50:07;28.10;1.00
14614;DHT22;7393;51.446;6.800;2023-09-12T12:52:34;28.10;1.00
14614;DHT22;7393;51.446;6.800;2023-09-12T12:55:07;28.10;1.00
14614;DHT22;7393;51.446;6.800;2023-09-12T12:57:36;28.20;1.00
14614;DHT22;7393;51.446;6.800;2023-09-12T13:00:08;28.30;1.00
14614;DHT22;7393;51.446;6.800;2023-09-12T13:02:36;28.30;1.00
14614;DHT22;7393;51.446;6.800;2023-09-12T13:05:03;28.40;1.00
14614;DHT22;7393;51.446;6.800;2023-09-12T13:07:33;28.60;1.00
14614;DHT22;7393;51.446;6.800;2023-09-12T13:10:00;28.60;1.00
14614;DHT22;7393;51.446;6.800;2023-09-12T13:12:27;28.70;1.00
14614;DHT22;7393;51.446;6.800;2023-09-12T13:14:54;28.70;1.00
14614;DHT22;7393;51.446;6.800;2023-09-12T13:17:23;28.70;1.00
14614;DHT22;7393;51.446;6.800;2023-09-12T13:19:49;28.80;1.00
14614;DHT22;7393;51.446;6.800;2023-09-12T13:22:16;28.80;1.00
14614;DHT22;7393;51.446;6.800;2023-09-12T13:24:43;28.70;1.00
14614;DHT22;7393;51.446;6.800;2023-09-12T13:27:10;28.70;1.00
14614;DHT22;7393;51.446;6.800;2023-09-12T13:29:36;28.70;1.00
14614;DHT22;7393;51.446;6.800;2023-09-12T13:32:04;28.80;1.00
14614;DHT22;7393;51.446;6.800;2023-09-12T13:34:32;28.80;1.00
14614;DHT22;7393;51.446;6.800;2023-09-12T13:36:59;28.90;1.00
14614;DHT22;7393;51.446;6.800;2023-09-12T13:39:25;29.10;1.00
14614;DHT22;7393;51.446;6.800;2023-09-12T13:41:53;29.10;1.00
14614;DHT22;7393;51.446;6.800;2023-09-12T13:44:23;29.20;1.00
14614;DHT22;7393;51.446;6.800;2023-09-12T13:46:50;29.10;1.00
14614;DHT22;7393;51.446;6.800;2023-09-12T13:49:16;29.00;1.00
14614;DHT22;7393;51.446;6.800;2023-09-12T13:51:44;29.00;1.00
14614;DHT22;7393;51.446;6.800;2023-09-12T13:54:11;29.00;1.00
14614;DHT22;7393;51.446;6.800;2023-09-12T13:56:40;29.00;1.00
14614;DHT22;7393;51.446;6.800;2023-09-12T13:59:07;29.00;1.00
14614;DHT22;7393;51.446;6.800;2023-09-12T14:01:34;29.00;1.00
14614;DHT22;7393;51.446;6.800;2023-09-12T14:04:00;28.90;1.00
14614;DHT22;7393;51.446;6.800;2023-09-12T14:06:28;29.00;1.00
14614;DHT22;7393;51.446;6.800;2023-09-12T14:08:56;29.10;1.00
14614;DHT22;7393;51.446;6.800;2023-09-12T14:11:22;29.20;1.00
14614;DHT22;7393;51.446;6.800;2023-09-12T14:13:49;29.30;1.00
14614;DHT22;7393;51.446;6.800;2023-09-12T14:16:16;29.30;1.00
14614;DHT22;7393;51.446;6.800;2023-09-12T14:18:43;29.30;1.00
14614;DHT22;7393;51.446;6.800;2023-09-12T14:21:10;29.30;1.00
14614;DHT22;7393;51.446;6.800;2023-09-12T14:23:36;29.30;1.00
14614;DHT22;7393;51.446;6.800;2023-09-12T14:26:05;29.40;1.00
14614;DHT22;7393;51.446;6.800;2023-09-12T14:28:31;29.50;1.00
14614;DHT22;7393;51.446;6.800;2023-09-12T14:31:00;29.50;1.00
14614;DHT22;7393;51.446;6.800;2023-09-12T14:33:29;29.60;1.00
14614;DHT22;7393;51.446;6.800;2023-09-12T14:35:56;29.60;1.00
14614;DHT22;7393;51.446;6.800;2023-09-12T14:38:22;29.60;1.00
14614;DHT22;7393;51.446;6.800;2023-09-12T14:40:52;29.60;1.00
14614;DHT22;7393;51.446;6.800;2023-09-12T14:43:20;29.60;1.00
14614;DHT22;7393;51.446;6.800;2023-09-12T14:45:48;29.60;1.00
14614;DHT22;7393;51.446;6.800;2023-09-12T14:48:15;29.50;1.00
14614;DHT22;7393;51.446;6.800;2023-09-12T14:50:42;29.50;1.00
14614;DHT22;7393;51.446;6.800;2023-09-12T14:53:10;29.40;1.00
14614;DHT22;7393;51.446;6.800;2023-09-12T14:55:37;29.40;1.00
14614;DHT22;7393;51.446;6.800;2023-09-12T14:58:04;29.30;1.00
14614;DHT22;7393;51.446;6.800;2023-09-12T15:00:32;29.30;1.00
14614;DHT22;7393;51.446;6.800;2023-09-12T15:02:59;29.30;1.00
14614;DHT22;7393;51.446;6.800;2023-09-12T15:05:26;29.20;1.00
14614;DHT22;7393;51.446;6.800;2023-09-12T15:07:53;29.10;1.00
14614;DHT22;7393;51.446;6.800;2023-09-12T15:10:20;29.00;1.00
14614;DHT22;7393;51.446;6.800;2023-09-12T15:12:47;28.90;1.00
14614;DHT22;7393;51.446;6.800;2023-09-12T15:15:14;28.80;1.00
14614;DHT22;7393;51.446;6.800;2023-09-12T15:17:42;28.60;1.00
14614;DHT22;7393;51.446;6.800;2023-09-12T15:20:10;28.40;1.00
14614;DHT22;7393;51.446;6.800;2023-09-12T15:22:37;28.30;1.00
14614;DHT22;7393;51.446;6.800;2023-09-12T15:25:05;28.10;1.00
14614;DHT22;7393;51.446;6.800;2023-09-12T15:27:32;28.10;1.00
14614;DHT22;7393;51.446;6.800;2023-09-12T15:30:00;27.90;1.00
14614;DHT22;7393;51.446;6.800;2023-09-12T15:32:27;27.60;1.00
14614;DHT22;7393;51.446;6.800;2023-09-12T15:34:55;27.40;1.00
14614;DHT22;7393;51.446;6.800;2023-09-12T15:37:22;27.30;1.00
14614;DHT22;7393;51.446;6.800;2023-09-12T15:39:49;27.20;1.00
14614;DHT22;7393;51.446;6.800;2023-09-12T15:42:16;27.20;1.00
14614;DHT22;7393;51.446;6.800;2023-09-12T15:44:43;27.20;1.00
14614;DHT22;7393;51.446;6.800;2023-09-12T15:47:09;27.10;1.00
14614;DHT22;7393;51.446;6.800;2023-09-12T15:49:36;27.10;1.00
14614;DHT22;7393;51.446;6.800;2023-09-12T15:52:05;27.10;1.00
14614;DHT22;7393;51.446;6.800;2023-09-12T15:54:32;27.10;1.00
14614;DHT22;7393;51.446;6.800;2023-09-12T15:56:59;27.00;1.00
14614;DHT22;7393;51.446;6.800;2023-09-12T15:59:27;26.90;1.00
14614;DHT22;7393;51.446;6.800;2023-09-12T16:01:55;26.90;1.00
14614;DHT22;7393;51.446;6.800;2023-09-12T16:04:22;27.00;1.00